Kimble County Airport
KJCT : now visible

Airfield :











YOU CAN JOIN US ON...

 
LOGIN :

Register | Disclaimer

   EN    FR    IT 

 









Legend :    VFR   Marginal VFR   IFR   Intensive IFR   Very Intensive IFR
Visi :
Ceiling :
>= 8 km
>= 3000ft
5 to 8 km
1000 to 3000 ft
1500m to 5 km
500 to 1000 ft
800 to 1500m
200 to 500 ft
< 800m
< 200 ft
Symbols :   Thunderstorms  Fog  Heavy snow  Heavy precipitations  Wind > 20 kt






- Airport Elevation : 1749 ft


KJCT - Kimble County

CURRENT METAR :
  • 182051Z AUTO 10010KT 10SM BKN045 BKN070 23/16 A2984 RMK AO2 SLPNO 60000 T02330161 56018

EXPIRED METARs :
  • 181951Z AUTO 09012KT 10SM FEW023 BKN050 22/16 A2985 RMK AO2 SLPNO T02220156
  • 181851Z AUTO 08008KT 10SM FEW013 19/15 A2987 RMK AO2 RAE01 SLPNO P0000 T01940150

TAF KJCT
Valid from the 18 at 18:00 until the 19 at 18:00 UTC


181754Z 1818/1918 14011KT P6SM VCSH BKN080
FM181900 15010KT P6SM BKN050
FM190600 13008KT P6SM BKN010
FM191600 12009KT P6SM BKN030 AMD NOT SKED
KZHU FIR / North America



MET'MAP, your aeronautical weather chart ! - Copyright ORBIFLY December 2007 - Disclaimer

ORBIFLY MET'MAP TEAM :

Programming & Development : Alexandra Zaïnal
Concept & original design : Baudouin d'Aumeries
Assistance for programming : Marc-Olivier Méhu
Technical & hardware support : Manuel Goepfert

Contact : metmap@orbifly.com




SOURCES & CREDITS :

   NOAA       Earth
Advisory